Time;durP1;ratioP1;P1;durP2;ratioP2;P2;SDS_P1;SDS_P2;PMS_P1;PMS_P2;Temp;Humidity;BMP_temperature;BMP_pressure;BME280_temperature;BME280_humidity;BME280_pressure;Samples;Min_cycle;Max_cycle;Signal;HPM_P1;HPM_P2
2021/12/12 00:03:03;;;;;;;20.53;12.47;;;;;;;;;;10372065;28;20825;-69
2021/12/12 00:08:05;;;;;;;20.53;12.73;;;;;;;;;;10370808;28;20206;-68
2021/12/12 00:13:15;;;;;;;26.80;14.30;;;;;;;;;;10356988;28;20690;-68
2021/12/12 00:18:17;;;;;;;26.00;14.17;;;;;;;;;;10354397;28;20220;-68
2021/12/12 00:23:18;;;;;;;33.10;15.23;;;;;;;;;;10354501;28;20299;-68
2021/12/12 00:28:21;;;;;;;29.63;14.53;;;;;;;;;;10362498;28;20804;-68
2021/12/12 00:33:22;;;;;;;30.30;13.73;;;;;;;;;;10356203;28;20213;-69
2021/12/12 00:38:26;;;;;;;24.07;14.33;;;;;;;;;;10358764;28;20176;-68
2021/12/12 00:43:29;;;;;;;28.00;14.63;;;;;;;;;;10360866;28;20187;-69
2021/12/12 00:48:31;;;;;;;25.17;13.70;;;;;;;;;;10382522;28;20219;-69
2021/12/12 00:53:32;;;;;;;28.50;14.03;;;;;;;;;;10390614;28;20312;-68
2021/12/12 00:58:33;;;;;;;24.63;12.87;;;;;;;;;;10397611;28;20192;-69
2021/12/12 01:03:36;;;;;;;29.23;14.27;;;;;;;;;;10401865;28;20217;-68
2021/12/12 01:08:38;;;;;;;32.67;13.90;;;;;;;;;;10401230;28;20226;-69
2021/12/12 01:13:39;;;;;;;27.53;12.83;;;;;;;;;;10404876;28;20185;-69
2021/12/12 01:18:42;;;;;;;23.97;13.00;;;;;;;;;;10398813;28;20716;-69
2021/12/12 01:23:43;;;;;;;27.52;12.55;;;;;;;;;;10400361;28;20289;-69
2021/12/12 01:28:45;;;;;;;25.80;13.60;;;;;;;;;;10401200;28;20200;-68
2021/12/12 01:33:54;;;;;;;31.60;13.73;;;;;;;;;;10402315;28;20603;-68
2021/12/12 01:38:56;;;;;;;26.07;13.73;;;;;;;;;;10398647;28;20190;-69
2021/12/12 01:44:14;;;;;;;26.63;13.40;;;;;;;;;;10404623;28;20211;-68
2021/12/12 01:49:17;;;;;;;23.40;11.60;;;;;;;;;;10402810;28;20668;-68
2021/12/12 01:54:21;;;;;;;27.20;13.53;;;;;;;;;;10402567;28;20214;-68
2021/12/12 01:59:23;;;;;;;25.70;12.63;;;;;;;;;;10396382;28;20223;-68
2021/12/12 02:04:27;;;;;;;24.83;12.27;;;;;;;;;;10398825;28;20772;-68
2021/12/12 02:09:28;;;;;;;25.03;13.93;;;;;;;;;;10399132;28;20247;-68
2021/12/12 02:14:32;;;;;;;29.30;14.43;;;;;;;;;;10406195;28;20175;-68
2021/12/12 02:19:48;;;;;;;27.35;13.55;;;;;;;;;;10396155;28;20682;-68
2021/12/12 02:35:44;;;;;;;26.55;13.95;;;;;;;;;;10401453;28;20293;-68
2021/12/12 02:40:47;;;;;;;26.27;13.70;;;;;;;;;;10401080;28;20180;-68
2021/12/12 02:45:53;;;;;;;24.23;13.37;;;;;;;;;;10399631;28;20231;-68
2021/12/12 02:50:55;;;;;;;23.35;12.85;;;;;;;;;;10399312;28;20271;-67
2021/12/12 02:56:01;;;;;;;27.55;13.25;;;;;;;;;;10395089;28;20215;-68
2021/12/12 03:01:09;;;;;;;24.43;12.83;;;;;;;;;;10402859;28;20800;-69
2021/12/12 03:06:11;;;;;;;24.60;12.75;;;;;;;;;;10401013;28;20199;-68
2021/12/12 03:11:12;;;;;;;25.80;12.88;;;;;;;;;;10395894;28;20179;-68
2021/12/12 03:16:14;;;;;;;24.10;13.15;;;;;;;;;;10396396;28;20207;-69
2021/12/12 03:21:20;;;;;;;27.17;13.13;;;;;;;;;;10404093;28;20901;-68
2021/12/12 03:26:21;;;;;;;23.20;12.20;;;;;;;;;;10407344;28;20204;-69
2021/12/12 03:31:24;;;;;;;20.02;12.20;;;;;;;;;;10402443;28;20291;-69
2021/12/12 03:36:25;;;;;;;20.00;11.47;;;;;;;;;;10397657;28;20317;-69
2021/12/12 03:41:31;;;;;;;21.30;11.53;;;;;;;;;;10400420;28;20184;-69
2021/12/12 03:46:33;;;;;;;23.90;12.40;;;;;;;;;;10403890;28;20646;-69
2021/12/12 03:51:35;;;;;;;21.40;11.50;;;;;;;;;;10407539;28;20199;-69
2021/12/12 03:56:36;;;;;;;20.47;12.13;;;;;;;;;;10411830;28;20237;-69
2021/12/12 04:01:39;;;;;;;20.73;11.60;;;;;;;;;;10405697;28;20601;-68
2021/12/12 04:06:40;;;;;;;24.20;11.73;;;;;;;;;;10399170;28;20736;-67
2021/12/12 04:11:47;;;;;;;18.87;11.90;;;;;;;;;;10401526;28;20192;-68
2021/12/12 04:16:51;;;;;;;21.30;11.32;;;;;;;;;;10402732;28;20590;-68
2021/12/12 04:21:53;;;;;;;18.97;11.30;;;;;;;;;;10400930;28;20198;-68
2021/12/12 04:26:54;;;;;;;23.80;11.87;;;;;;;;;;10398638;28;20199;-68
2021/12/12 04:31:58;;;;;;;22.67;11.67;;;;;;;;;;10402864;28;20219;-68
2021/12/12 04:37:04;;;;;;;20.57;11.80;;;;;;;;;;10397292;28;20258;-68
2021/12/12 04:42:13;;;;;;;18.47;10.93;;;;;;;;;;10399515;28;20180;-68
2021/12/12 04:52:43;;;;;;;20.23;11.77;;;;;;;;;;10397351;28;20789;-68
2021/12/12 04:57:51;;;;;;;23.93;12.43;;;;;;;;;;10398550;28;20206;-68
2021/12/12 05:03:01;;;;;;;21.05;11.98;;;;;;;;;;10404758;28;20230;-68
2021/12/12 05:08:23;;;;;;;23.50;11.50;;;;;;;;;;10405438;28;20858;-67
2021/12/12 05:13:25;;;;;;;25.03;11.50;;;;;;;;;;10399907;28;20225;-68
2021/12/12 05:18:29;;;;;;;22.80;11.80;;;;;;;;;;10402050;28;20238;-68
2021/12/12 05:23:32;;;;;;;25.42;12.32;;;;;;;;;;10394010;28;20214;-68
2021/12/12 05:28:36;;;;;;;22.23;11.90;;;;;;;;;;10398229;28;20216;-67
2021/12/12 05:33:37;;;;;;;20.70;11.77;;;;;;;;;;10398788;28;20243;-68
2021/12/12 05:38:39;;;;;;;24.27;12.48;;;;;;;;;;10399628;28;20183;-68
2021/12/12 05:43:40;;;;;;;19.03;10.07;;;;;;;;;;10406820;28;20184;-68
2021/12/12 05:48:41;;;;;;;22.77;11.63;;;;;;;;;;10400742;28;20246;-68
2021/12/12 05:53:43;;;;;;;24.93;12.93;;;;;;;;;;10404994;28;20257;-68
2021/12/12 05:58:44;;;;;;;22.50;11.77;;;;;;;;;;10401652;28;20215;-68
2021/12/12 06:03:46;;;;;;;24.23;11.53;;;;;;;;;;10389939;28;20306;-68
2021/12/12 06:08:48;;;;;;;26.13;12.50;;;;;;;;;;10393781;28;20241;-67
2021/12/12 06:13:49;;;;;;;30.40;12.77;;;;;;;;;;10400565;28;20242;-68
2021/12/12 06:18:58;;;;;;;23.60;13.03;;;;;;;;;;10401741;28;20314;-68
2021/12/12 06:24:00;;;;;;;22.60;12.03;;;;;;;;;;10395989;28;20211;-68
2021/12/12 06:29:01;;;;;;;31.83;14.00;;;;;;;;;;10400022;28;20215;-68
2021/12/12 06:34:02;;;;;;;31.20;13.97;;;;;;;;;;10393489;28;20709;-68
2021/12/12 06:39:05;;;;;;;28.27;13.60;;;;;;;;;;10403576;28;20183;-68
2021/12/12 06:44:07;;;;;;;27.80;13.90;;;;;;;;;;10394534;28;20180;-68
2021/12/12 06:49:09;;;;;;;29.63;13.67;;;;;;;;;;10350789;28;20224;-68
2021/12/12 06:54:13;;;;;;;26.80;13.82;;;;;;;;;;10341219;28;20859;-68
2021/12/12 06:59:15;;;;;;;30.13;15.80;;;;;;;;;;10345957;28;20505;-68
2021/12/12 07:04:18;;;;;;;28.47;14.03;;;;;;;;;;10360846;28;20215;-67
2021/12/12 07:09:20;;;;;;;31.13;14.80;;;;;;;;;;10364195;28;20207;-68
2021/12/12 07:14:21;;;;;;;26.23;14.20;;;;;;;;;;10367611;28;20255;-68
2021/12/12 07:19:23;;;;;;;27.25;14.27;;;;;;;;;;10362831;28;20235;-68
2021/12/12 07:24:24;;;;;;;28.30;13.45;;;;;;;;;;10361438;28;20203;-68
2021/12/12 07:29:26;;;;;;;27.02;13.30;;;;;;;;;;10350887;28;20201;-68
2021/12/12 07:34:28;;;;;;;25.48;13.45;;;;;;;;;;10363467;28;20300;-68
2021/12/12 07:39:30;;;;;;;24.63;13.88;;;;;;;;;;10361774;28;20187;-70
2021/12/12 07:44:33;;;;;;;22.40;12.35;;;;;;;;;;10361407;28;20672;-69
2021/12/12 07:49:39;;;;;;;25.57;13.83;;;;;;;;;;10362971;28;20224;-69
2021/12/12 07:54:40;;;;;;;26.23;13.77;;;;;;;;;;10358499;28;20966;-69
2021/12/12 07:59:41;;;;;;;21.98;13.60;;;;;;;;;;10358868;28;20222;-69
2021/12/12 08:04:43;;;;;;;25.52;13.35;;;;;;;;;;10356169;28;20227;-69
2021/12/12 08:09:45;;;;;;;22.75;13.73;;;;;;;;;;10364085;28;20255;-70
2021/12/12 08:14:49;;;;;;;26.20;13.45;;;;;;;;;;10359992;28;20181;-68
2021/12/12 08:19:51;;;;;;;23.88;13.77;;;;;;;;;;10360557;28;20216;-68
2021/12/12 08:24:52;;;;;;;27.02;14.05;;;;;;;;;;10351047;28;20209;-68
2021/12/12 08:29:55;;;;;;;44.00;24.03;;;;;;;;;;10353635;28;20204;-68
2021/12/12 08:34:56;;;;;;;22.10;12.73;;;;;;;;;;10356075;28;20212;-69
2021/12/12 08:39:57;;;;;;;26.08;13.65;;;;;;;;;;10357475;28;20688;-68
2021/12/12 08:44:59;;;;;;;25.73;11.90;;;;;;;;;;10361134;28;20191;-68
2021/12/12 08:50:00;;;;;;;21.83;11.88;;;;;;;;;;10353493;28;20216;-68
2021/12/12 08:55:02;;;;;;;20.55;11.55;;;;;;;;;;10356132;28;20245;-67
2021/12/12 09:00:05;;;;;;;22.83;12.43;;;;;;;;;;10357748;28;20212;-68
2021/12/12 09:05:09;;;;;;;24.77;13.38;;;;;;;;;;10353868;28;20719;-68
2021/12/12 09:10:10;;;;;;;22.10;12.57;;;;;;;;;;10360765;28;20295;-68
2021/12/12 09:15:17;;;;;;;22.58;12.30;;;;;;;;;;10351908;28;20177;-68
2021/12/12 09:20:47;;;;;;;22.92;11.88;;;;;;;;;;10392172;28;20188;-68
2021/12/12 09:25:57;;;;;;;20.20;12.02;;;;;;;;;;10350666;28;20251;-69
2021/12/12 09:31:01;;;;;;;23.23;12.50;;;;;;;;;;10354375;28;21341;-68
2021/12/12 09:36:24;;;;;;;21.67;11.40;;;;;;;;;;10355521;28;20184;-67
2021/12/12 09:41:31;;;;;;;19.05;9.43;;;;;;;;;;10358212;28;20191;-68
2021/12/12 09:46:44;;;;;;;21.33;11.52;;;;;;;;;;10354028;28;20217;-67
2021/12/12 09:51:45;;;;;;;21.20;11.65;;;;;;;;;;10353342;28;20201;-67
2021/12/12 09:56:46;;;;;;;20.13;12.23;;;;;;;;;;10357481;28;20199;-68
2021/12/12 10:01:52;;;;;;;18.88;11.48;;;;;;;;;;10353392;28;20274;-68
2021/12/12 10:07:01;;;;;;;20.58;11.30;;;;;;;;;;10355329;28;20203;-69
2021/12/12 10:12:06;;;;;;;16.85;11.93;;;;;;;;;;10384403;28;20938;-67
2021/12/12 10:17:10;;;;;;;25.40;11.63;;;;;;;;;;10355648;28;20218;-69
2021/12/12 10:22:17;;;;;;;20.48;10.65;;;;;;;;;;10353347;28;20257;-68
2021/12/12 10:27:25;;;;;;;17.60;10.32;;;;;;;;;;10351218;28;20303;-69
2021/12/12 10:32:29;;;;;;;18.27;11.20;;;;;;;;;;10353224;28;20212;-69
2021/12/12 10:37:36;;;;;;;17.98;10.85;;;;;;;;;;10358721;28;20274;-68
2021/12/12 10:42:42;;;;;;;17.38;10.00;;;;;;;;;;10352290;28;20196;-70
2021/12/12 10:47:50;;;;;;;15.80;11.00;;;;;;;;;;10360259;28;20802;-68
2021/12/12 10:52:59;;;;;;;19.95;11.70;;;;;;;;;;10355468;28;20200;-70
2021/12/12 10:58:20;;;;;;;16.38;9.25;;;;;;;;;;10352038;28;20200;-70
2021/12/12 11:03:30;;;;;;;17.75;9.93;;;;;;;;;;10342979;28;20223;-70
2021/12/12 11:08:47;;;;;;;15.75;10.13;;;;;;;;;;10352704;28;20254;-67
2021/12/12 11:13:51;;;;;;;22.20;13.95;;;;;;;;;;10363328;28;20214;-68
2021/12/12 11:19:02;;;;;;;20.08;10.77;;;;;;;;;;10360011;28;21086;-69
2021/12/12 11:24:08;;;;;;;16.02;9.50;;;;;;;;;;10354992;28;20204;-69
2021/12/12 11:29:15;;;;;;;14.70;9.55;;;;;;;;;;10356483;28;20195;-68
2021/12/12 11:34:16;;;;;;;19.67;11.00;;;;;;;;;;10356404;28;20204;-68
2021/12/12 11:39:21;;;;;;;12.55;8.25;;;;;;;;;;10349005;28;20176;-69
2021/12/12 11:44:39;;;;;;;21.73;12.10;;;;;;;;;;10353474;28;20195;-68
2021/12/12 11:49:50;;;;;;;16.05;7.68;;;;;;;;;;10350141;28;20306;-68
2021/12/12 11:54:54;;;;;;;17.17;8.77;;;;;;;;;;10364242;28;20661;-67
2021/12/12 12:00:18;;;;;;;15.43;9.20;;;;;;;;;;10358838;28;20217;-68
2021/12/12 12:05:30;;;;;;;14.40;8.10;;;;;;;;;;10394714;28;20211;-68
2021/12/12 12:10:40;;;;;;;18.60;8.80;;;;;;;;;;10377597;28;20176;-68
2021/12/12 12:15:59;;;;;;;9.50;7.15;;;;;;;;;;10394942;28;20471;-69
2021/12/12 12:21:13;;;;;;;15.02;7.75;;;;;;;;;;10358180;28;20181;-68
2021/12/12 12:31:36;;;;;;;12.68;8.48;;;;;;;;;;10356697;28;20687;-68
2021/12/12 12:37:00;;;;;;;16.83;10.23;;;;;;;;;;10350024;28;20187;-68
2021/12/12 12:42:21;;;;;;;18.02;11.60;;;;;;;;;;10354641;28;20176;-68
2021/12/12 12:47:25;;;;;;;10.63;6.60;;;;;;;;;;10351107;28;20221;-68
2021/12/12 12:52:38;;;;;;;12.63;6.88;;;;;;;;;;10348894;28;22018;-69
2021/12/12 12:57:40;;;;;;;11.88;6.32;;;;;;;;;;10355978;28;20574;-69
2021/12/12 13:03:00;;;;;;;8.73;6.88;;;;;;;;;;10355709;28;20594;-69
2021/12/12 13:08:19;;;;;;;10.95;6.90;;;;;;;;;;10356660;28;20704;-66
2021/12/12 13:13:28;;;;;;;10.55;6.88;;;;;;;;;;10358698;28;20730;-69
2021/12/12 13:18:50;;;;;;;13.38;6.45;;;;;;;;;;10356849;28;20225;-67
2021/12/12 13:24:00;;;;;;;11.30;6.15;;;;;;;;;;10345972;28;20208;-67
2021/12/12 13:29:20;;;;;;;13.82;7.35;;;;;;;;;;10355510;28;20196;-67
2021/12/12 13:34:46;;;;;;;7.20;6.45;;;;;;;;;;10358554;28;20267;-69
2021/12/12 13:39:53;;;;;;;8.25;5.88;;;;;;;;;;10355763;28;20187;-68
2021/12/12 13:45:03;;;;;;;9.48;5.57;;;;;;;;;;10348540;28;20671;-67
2021/12/12 13:50:07;;;;;;;6.03;5.43;;;;;;;;;;10355225;28;20211;-67
2021/12/12 13:55:16;;;;;;;6.28;5.25;;;;;;;;;;10348610;28;20227;-67
2021/12/12 14:00:20;;;;;;;5.50;4.80;;;;;;;;;;10355385;28;20190;-68
2021/12/12 14:05:43;;;;;;;9.13;5.72;;;;;;;;;;10345497;28;20267;-66
2021/12/12 14:10:45;;;;;;;11.50;7.18;;;;;;;;;;10344371;28;20192;-66
2021/12/12 14:15:50;;;;;;;9.70;6.00;;;;;;;;;;10348185;28;20834;-70
2021/12/12 14:20:53;;;;;;;5.97;5.47;;;;;;;;;;10352632;28;20211;-65
2021/12/12 14:26:04;;;;;;;6.55;5.65;;;;;;;;;;10358706;28;20227;-67
2021/12/12 14:31:06;;;;;;;7.03;6.32;;;;;;;;;;10348228;28;20238;-67
2021/12/12 14:36:11;;;;;;;7.43;4.70;;;;;;;;;;10349133;28;20561;-66
2021/12/12 14:41:12;;;;;;;5.72;5.03;;;;;;;;;;10350339;28;20193;-68
2021/12/12 14:46:13;;;;;;;9.25;5.38;;;;;;;;;;10346574;28;20220;-67
2021/12/12 14:51:18;;;;;;;9.23;7.60;;;;;;;;;;10354828;28;20185;-68
2021/12/12 14:56:27;;;;;;;13.40;9.98;;;;;;;;;;10352023;28;20199;-70
2021/12/12 15:01:41;;;;;;;11.25;10.00;;;;;;;;;;10349217;28;20266;-70
2021/12/12 15:06:44;;;;;;;10.18;8.85;;;;;;;;;;10331327;28;20211;-68
2021/12/12 15:11:55;;;;;;;7.22;6.50;;;;;;;;;;10330686;28;20304;-69
2021/12/12 15:16:57;;;;;;;5.25;3.58;;;;;;;;;;10341527;28;20865;-69
2021/12/12 15:22:03;;;;;;;3.88;3.60;;;;;;;;;;10356961;28;20204;-68
2021/12/12 15:27:07;;;;;;;4.22;3.63;;;;;;;;;;10363510;28;20263;-69
2021/12/12 15:32:16;;;;;;;2.53;2.53;;;;;;;;;;10361411;28;20269;-70
2021/12/12 15:37:19;;;;;;;2.38;2.13;;;;;;;;;;10354258;28;20180;-67
2021/12/12 15:42:21;;;;;;;3.15;2.95;;;;;;;;;;10352920;28;20189;-69
2021/12/12 15:47:23;;;;;;;3.22;3.00;;;;;;;;;;10344864;28;20219;-68
2021/12/12 15:52:27;;;;;;;4.13;3.22;;;;;;;;;;10352175;28;20291;-67
2021/12/12 15:57:31;;;;;;;3.80;3.58;;;;;;;;;;10361144;28;20258;-69
2021/12/12 16:02:32;;;;;;;4.13;3.85;;;;;;;;;;10359425;28;20238;-69
2021/12/12 16:07:38;;;;;;;3.50;3.40;;;;;;;;;;10361277;28;20207;-70
2021/12/12 16:12:42;;;;;;;3.70;3.28;;;;;;;;;;10360155;28;20195;-69
2021/12/12 16:17:48;;;;;;;3.00;2.90;;;;;;;;;;10354798;28;20225;-70
2021/12/12 16:22:52;;;;;;;3.47;3.03;;;;;;;;;;10359706;28;20730;-68
2021/12/12 16:27:55;;;;;;;4.55;4.15;;;;;;;;;;10357069;28;20720;-68
2021/12/12 16:32:58;;;;;;;5.85;5.40;;;;;;;;;;10348019;28;20236;-69
2021/12/12 16:38:00;;;;;;;4.93;4.63;;;;;;;;;;10353428;28;20255;-69
2021/12/12 16:43:10;;;;;;;5.32;4.82;;;;;;;;;;10359527;28;20198;-69
2021/12/12 16:48:12;;;;;;;16.52;9.95;;;;;;;;;;10350478;28;20220;-69
2021/12/12 16:53:20;;;;;;;5.72;5.28;;;;;;;;;;10353356;28;20219;-69
2021/12/12 16:58:26;;;;;;;9.60;8.70;;;;;;;;;;10345713;28;20223;-69
2021/12/12 17:03:33;;;;;;;9.88;9.02;;;;;;;;;;10355908;28;20273;-70
2021/12/12 17:08:59;;;;;;;5.32;5.03;;;;;;;;;;10355263;28;20718;-68
2021/12/12 17:14:08;;;;;;;4.53;4.32;;;;;;;;;;10346878;28;20787;-67
2021/12/12 17:19:11;;;;;;;5.78;5.18;;;;;;;;;;10352500;28;20322;-68
2021/12/12 17:24:12;;;;;;;7.22;6.53;;;;;;;;;;10349952;28;20208;-68
2021/12/12 17:29:19;;;;;;;5.22;4.70;;;;;;;;;;10354805;28;20211;-67
2021/12/12 17:34:25;;;;;;;7.57;6.88;;;;;;;;;;10346398;28;20212;-68
2021/12/12 17:39:29;;;;;;;8.93;8.23;;;;;;;;;;10350797;28;20211;-69
2021/12/12 17:44:49;;;;;;;9.27;8.40;;;;;;;;;;10360083;28;20179;-69
2021/12/12 17:50:03;;;;;;;8.32;7.63;;;;;;;;;;10345418;28;20230;-69
2021/12/12 17:55:23;;;;;;;6.38;5.97;;;;;;;;;;10353261;28;20216;-68
2021/12/12 18:00:53;;;;;;;8.82;7.93;;;;;;;;;;10343454;28;20223;-70
2021/12/12 18:05:55;;;;;;;7.93;6.60;;;;;;;;;;10356978;28;20194;-69
2021/12/12 18:10:58;;;;;;;5.78;5.28;;;;;;;;;;10404563;28;20261;-70
2021/12/12 18:16:02;;;;;;;6.60;6.03;;;;;;;;;;10399705;28;20341;-69
2021/12/12 18:21:03;;;;;;;10.75;9.63;;;;;;;;;;10394414;28;20191;-70
2021/12/12 18:26:05;;;;;;;29.95;18.60;;;;;;;;;;10394954;28;20207;-69
2021/12/12 18:31:15;;;;;;;43.25;25.33;;;;;;;;;;10376691;28;20211;-69
2021/12/12 18:36:16;;;;;;;32.50;19.35;;;;;;;;;;10396765;28;20191;-68
2021/12/12 18:41:20;;;;;;;10.02;9.02;;;;;;;;;;10389286;28;20657;-69
2021/12/12 18:46:24;;;;;;;15.45;12.45;;;;;;;;;;10384366;28;20257;-68
2021/12/12 18:51:25;;;;;;;10.45;9.48;;;;;;;;;;10393393;28;20215;-67
2021/12/12 18:56:29;;;;;;;10.18;9.18;;;;;;;;;;10403488;28;20306;-67
2021/12/12 19:01:39;;;;;;;9.80;8.90;;;;;;;;;;10401581;28;20234;-70
2021/12/12 19:06:42;;;;;;;7.88;7.18;;;;;;;;;;10403971;28;20234;-70
2021/12/12 19:11:43;;;;;;;6.63;6.03;;;;;;;;;;10397542;28;20234;-70
2021/12/12 19:16:46;;;;;;;7.80;6.97;;;;;;;;;;10399931;28;20322;-69
2021/12/12 19:21:48;;;;;;;6.47;6.07;;;;;;;;;;10399734;28;20207;-67
2021/12/12 19:26:51;;;;;;;7.25;6.75;;;;;;;;;;10393299;28;20203;-70
2021/12/12 19:32:04;;;;;;;5.05;4.75;;;;;;;;;;10404808;28;20276;-70
2021/12/12 19:37:07;;;;;;;5.32;5.03;;;;;;;;;;10413610;28;20191;-69
2021/12/12 19:42:12;;;;;;;4.88;4.65;;;;;;;;;;10406131;28;20179;-71
2021/12/12 19:47:16;;;;;;;4.80;4.40;;;;;;;;;;10383364;28;20220;-71
2021/12/12 19:52:29;;;;;;;4.60;4.40;;;;;;;;;;10351383;28;20294;-69
2021/12/12 19:57:31;;;;;;;4.15;3.92;;;;;;;;;;10340533;28;20211;-69
2021/12/12 20:02:34;;;;;;;3.97;3.88;;;;;;;;;;10318299;28;20224;-68
2021/12/12 20:07:35;;;;;;;4.20;4.05;;;;;;;;;;10322136;28;20248;-68
2021/12/12 20:12:37;;;;;;;4.57;4.28;;;;;;;;;;10330122;28;20194;-70
2021/12/12 20:17:42;;;;;;;4.72;4.53;;;;;;;;;;10345497;28;20247;-70
2021/12/12 20:22:45;;;;;;;4.72;4.53;;;;;;;;;;10344613;28;20207;-69
2021/12/12 20:27:50;;;;;;;4.70;4.50;;;;;;;;;;10371357;28;20208;-69
2021/12/12 20:32:53;;;;;;;6.05;5.65;;;;;;;;;;10380525;28;20222;-69
2021/12/12 20:37:56;;;;;;;5.90;5.50;;;;;;;;;;10343146;28;20184;-70
2021/12/12 20:42:58;;;;;;;5.90;5.50;;;;;;;;;;10340219;28;20199;-69
2021/12/12 20:48:12;;;;;;;5.35;5.03;;;;;;;;;;10344832;28;20252;-68
2021/12/12 20:53:19;;;;;;;5.57;5.28;;;;;;;;;;10338404;28;20268;-68
2021/12/12 20:58:25;;;;;;;5.88;5.38;;;;;;;;;;10359423;28;20215;-71
2021/12/12 21:03:28;;;;;;;5.30;5.00;;;;;;;;;;10345638;28;20224;-66
2021/12/12 21:08:30;;;;;;;6.60;5.72;;;;;;;;;;10361015;28;20208;-69
2021/12/12 21:13:38;;;;;;;5.47;5.18;;;;;;;;;;10362613;28;20176;-67
2021/12/12 21:18:46;;;;;;;5.70;5.35;;;;;;;;;;10354402;28;20227;-67
2021/12/12 21:23:49;;;;;;;5.15;4.85;;;;;;;;;;10360176;28;20219;-69
2021/12/12 21:28:52;;;;;;;5.13;4.78;;;;;;;;;;10354182;28;20638;-67
2021/12/12 21:34:00;;;;;;;4.70;4.50;;;;;;;;;;10347002;28;20328;-67
2021/12/12 21:39:01;;;;;;;5.13;4.72;;;;;;;;;;10358100;28;20185;-66
2021/12/12 21:44:11;;;;;;;4.50;4.30;;;;;;;;;;10359980;28;20203;-68
2021/12/12 21:49:13;;;;;;;4.20;4.10;;;;;;;;;;10357302;28;20384;-67
2021/12/12 21:54:16;;;;;;;4.50;4.20;;;;;;;;;;10362623;28;20270;-67
2021/12/12 21:59:18;;;;;;;4.68;4.53;;;;;;;;;;10362571;28;20184;-67
2021/12/12 22:04:24;;;;;;;4.43;4.22;;;;;;;;;;10348427;28;20212;-68
2021/12/12 22:09:38;;;;;;;4.93;4.72;;;;;;;;;;10345970;28;20219;-67
2021/12/12 22:14:57;;;;;;;3.90;3.80;;;;;;;;;;10348404;28;20187;-68
2021/12/12 22:20:05;;;;;;;4.65;4.45;;;;;;;;;;10358239;28;20245;-67
2021/12/12 22:25:09;;;;;;;3.88;3.78;;;;;;;;;;10341234;28;20585;-68
2021/12/12 22:30:14;;;;;;;4.50;4.30;;;;;;;;;;10354774;28;20207;-67
2021/12/12 22:35:17;;;;;;;4.45;4.10;;;;;;;;;;10354840;28;20220;-67
2021/12/12 22:40:20;;;;;;;4.63;4.43;;;;;;;;;;10347408;28;20182;-67
2021/12/12 22:45:21;;;;;;;3.97;3.85;;;;;;;;;;10344342;28;20192;-70
2021/12/12 22:50:28;;;;;;;4.88;4.53;;;;;;;;;;10337229;28;20207;-68
2021/12/12 22:55:37;;;;;;;5.32;5.10;;;;;;;;;;10355436;28;20215;-67
2021/12/12 23:00:38;;;;;;;5.47;5.18;;;;;;;;;;10357195;28;20250;-67
2021/12/12 23:05:43;;;;;;;6.22;5.72;;;;;;;;;;10356751;28;20253;-68
2021/12/12 23:10:47;;;;;;;6.05;5.70;;;;;;;;;;10357829;28;20212;-70
2021/12/12 23:15:51;;;;;;;6.82;6.35;;;;;;;;;;10351797;28;20299;-68
2021/12/12 23:20:56;;;;;;;5.88;5.57;;;;;;;;;;10350198;28;20270;-67
2021/12/12 23:26:09;;;;;;;6.43;6.07;;;;;;;;;;10351610;28;20203;-67
2021/12/12 23:31:11;;;;;;;8.27;7.57;;;;;;;;;;10350469;28;20220;-68
2021/12/12 23:36:15;;;;;;;7.82;7.22;;;;;;;;;;10361354;28;20829;-72
2021/12/12 23:41:25;;;;;;;7.03;6.45;;;;;;;;;;10362692;28;20589;-68
2021/12/12 23:46:38;;;;;;;8.35;7.53;;;;;;;;;;10360390;28;21128;-67
2021/12/12 23:51:42;;;;;;;8.45;7.70;;;;;;;;;;10356264;28;20196;-67
2021/12/12 23:56:45;;;;;;;8.57;7.78;;;;;;;;;;10353382;28;20204;-69
